Time;durP1;ratioP1;P1;durP2;ratioP2;P2;SDS_P1;SDS_P2;PMS_P1;PMS_P2;Temp;Humidity;BMP_temperature;BMP_pressure;BME280_temperature;BME280_humidity;BME280_pressure;Samples;Min_cycle;Max_cycle;Signal;HPM_P1;HPM_P2
2023/10/29 08:44:28;;;;;;;2.77;0.53;;;15.60;99.90;;;;;;4943672;23;20239;-76
2023/10/29 08:46:56;;;;;;;2.37;0.77;;;15.60;99.90;;;;;;4934509;29;20209;-76
2023/10/29 08:49:21;;;;;;;2.03;0.60;;;15.70;99.90;;;;;;4935560;29;20212;-76
2023/10/29 08:51:48;;;;;;;10.50;0.87;;;15.80;99.90;;;;;;4938711;29;20720;-74
2023/10/29 08:54:15;;;;;;;2.67;0.60;;;15.90;99.90;;;;;;4938515;29;20295;-76
2023/10/29 08:56:42;;;;;;;2.40;0.43;;;15.70;99.90;;;;;;4938655;29;20247;-75
2023/10/29 08:59:09;;;;;;;2.53;0.60;;;15.70;99.90;;;;;;4938758;29;20300;-76
2023/10/29 09:01:37;;;;;;;1.73;0.40;;;15.50;99.90;;;;;;4938471;29;20224;-75
2023/10/29 09:04:04;;;;;;;4.00;0.70;;;15.50;99.90;;;;;;4938552;29;20219;-75
2023/10/29 09:06:32;;;;;;;1.13;0.67;;;15.50;99.90;;;;;;4938543;29;20216;-73
2023/10/29 09:08:59;;;;;;;2.40;0.57;;;15.60;99.90;;;;;;4938390;29;20204;-74
2023/10/29 09:11:26;;;;;;;3.90;0.90;;;15.80;99.90;;;;;;4938233;29;20730;-74
2023/10/29 09:13:53;;;;;;;2.97;0.80;;;15.90;99.90;;;;;;4938222;29;20216;-74
2023/10/29 09:16:20;;;;;;;2.47;1.00;;;16.00;99.90;;;;;;4938243;29;20243;-75
2023/10/29 09:18:48;;;;;;;2.13;0.50;;;16.00;99.90;;;;;;4938277;29;20205;-75
2023/10/29 09:21:15;;;;;;;3.23;0.77;;;15.80;99.90;;;;;;4938460;29;20233;-74
2023/10/29 09:23:42;;;;;;;1.50;0.40;;;15.70;99.90;;;;;;4938195;29;20698;-76
2023/10/29 09:26:09;;;;;;;4.27;1.07;;;15.60;99.90;;;;;;4938449;29;20215;-74
2023/10/29 09:28:36;;;;;;;2.23;0.70;;;15.50;99.90;;;;;;4938255;29;20303;-75
2023/10/29 09:31:04;;;;;;;2.17;0.80;;;15.60;99.90;;;;;;4938146;29;20319;-75
2023/10/29 09:33:31;;;;;;;4.17;0.83;;;15.70;99.90;;;;;;4938196;29;20247;-75
2023/10/29 09:36:00;;;;;;;4.90;0.93;;;15.80;99.90;;;;;;4938194;29;20240;-75
2023/10/29 09:38:27;;;;;;;2.87;0.80;;;15.90;99.90;;;;;;4938182;29;20204;-74
2023/10/29 09:40:53;;;;;;;4.17;0.90;;;15.80;99.90;;;;;;4937849;29;20241;-74
2023/10/29 09:43:21;;;;;;;5.23;0.90;;;15.70;99.90;;;;;;4938147;29;20216;-74
2023/10/29 09:45:49;;;;;;;3.93;0.70;;;15.80;99.90;;;;;;4937747;29;20213;-75
2023/10/29 09:48:16;;;;;;;6.27;0.90;;;15.70;99.90;;;;;;4937781;29;20209;-74
2023/10/29 09:50:44;;;;;;;1.60;0.60;;;15.50;99.90;;;;;;4937680;29;20205;-74
2023/10/29 09:53:15;;;;;;;3.13;0.60;;;15.40;99.90;;;;;;4938028;29;20219;-74
2023/10/29 09:55:42;;;;;;;4.93;0.63;;;15.40;99.90;;;;;;4937703;29;20241;-73
2023/10/29 09:58:09;;;;;;;2.73;0.60;;;15.40;99.90;;;;;;4937382;29;20208;-73
2023/10/29 10:00:37;;;;;;;4.63;0.80;;;15.50;99.90;;;;;;4937250;29;20244;-74
2023/10/29 10:03:04;;;;;;;3.13;0.53;;;15.70;99.90;;;;;;4932514;29;20201;-73
2023/10/29 10:05:32;;;;;;;3.30;1.00;;;15.90;99.90;;;;;;4935906;29;20235;-75
2023/10/29 10:08:00;;;;;;;4.77;0.93;;;16.30;99.90;;;;;;4928079;29;20344;-76
2023/10/29 10:10:42;;;;;;;7.17;0.77;;;16.40;99.90;;;;;;4936313;29;20690;-77
2023/10/29 10:13:10;;;;;;;10.30;0.90;;;16.30;99.90;;;;;;4936166;29;20219;-79
2023/10/29 10:15:39;;;;;;;5.37;0.73;;;16.30;99.90;;;;;;4936587;29;20236;-79
2023/10/29 10:18:06;;;;;;;3.37;0.63;;;16.30;99.90;;;;;;4937102;29;20200;-75
2023/10/29 10:20:34;;;;;;;6.13;0.80;;;16.20;99.90;;;;;;4934901;29;20686;-74
2023/10/29 10:23:03;;;;;;;4.73;0.70;;;16.00;99.90;;;;;;4926212;29;20696;-74
2023/10/29 10:25:31;;;;;;;1.87;0.93;;;15.90;99.90;;;;;;4936871;29;20296;-73
2023/10/29 10:28:00;;;;;;;4.97;0.97;;;15.80;99.90;;;;;;4929008;29;20293;-74
2023/10/29 10:30:29;;;;;;;3.20;0.70;;;15.70;99.90;;;;;;4917803;29;20217;-75
2023/10/29 10:33:09;;;;;;;5.23;0.80;;;15.50;99.90;;;;;;4925300;29;20256;-73
2023/10/29 10:35:40;;;;;;;7.63;0.70;;;15.40;99.90;;;;;;4936421;29;20240;-74
2023/10/29 10:38:07;;;;;;;2.40;0.90;;;15.30;99.90;;;;;;4917352;29;20206;-75
2023/10/29 10:40:34;;;;;;;5.10;0.60;;;15.20;99.90;;;;;;4917675;29;20217;-79
2023/10/29 10:43:02;;;;;;;2.80;0.67;;;15.00;99.90;;;;;;4931672;29;20211;-73
2023/10/29 10:45:31;;;;;;;5.67;0.63;;;15.10;99.90;;;;;;4936331;29;20228;-74
2023/10/29 10:48:00;;;;;;;3.20;0.57;;;15.00;99.90;;;;;;4936486;29;20252;-74
2023/10/29 10:50:28;;;;;;;4.93;0.70;;;15.00;99.90;;;;;;4936355;29;20256;-73
2023/10/29 10:52:56;;;;;;;2.13;0.50;;;15.10;99.90;;;;;;4936189;29;20235;-73
2023/10/29 10:55:24;;;;;;;0.93;0.50;;;15.20;99.90;;;;;;4936403;29;20237;-76
2023/10/29 10:57:51;;;;;;;3.17;0.60;;;15.30;99.90;;;;;;4927998;29;20202;-75
2023/10/29 11:00:22;;;;;;;1.70;0.40;;;15.40;99.90;;;;;;4925787;29;20275;-73
2023/10/29 11:02:50;;;;;;;1.90;0.50;;;15.30;99.90;;;;;;4935904;29;20228;-73
2023/10/29 11:05:17;;;;;;;2.30;0.57;;;15.30;99.90;;;;;;4936325;29;20583;-75
2023/10/29 11:07:45;;;;;;;4.10;0.60;;;15.20;99.90;;;;;;4935972;29;20208;-75
2023/10/29 11:10:14;;;;;;;2.80;0.70;;;15.20;99.90;;;;;;4936355;29;20235;-75
2023/10/29 11:12:41;;;;;;;3.67;0.50;;;15.30;99.90;;;;;;4935180;29;20267;-74
2023/10/29 11:15:20;;;;;;;3.27;0.60;;;15.40;99.90;;;;;;4935591;29;20204;-73
2023/10/29 11:18:12;;;;;;;4.40;0.50;;;15.60;99.90;;;;;;4935824;29;20292;-73
2023/10/29 11:20:55;;;;;;;2.67;0.53;;;15.50;99.90;;;;;;4932643;29;20544;-73
2023/10/29 11:23:26;;;;;;;2.50;0.63;;;15.50;99.90;;;;;;4935009;29;20244;-74
2023/10/29 11:26:21;;;;;;;2.60;0.60;;;15.40;99.90;;;;;;4935315;29;20217;-74
2023/10/29 11:28:49;;;;;;;4.03;0.50;;;15.60;99.90;;;;;;4912196;29;20212;-73
2023/10/29 11:31:17;;;;;;;2.33;0.50;;;15.60;99.90;;;;;;4935766;29;20315;-74
2023/10/29 11:33:46;;;;;;;4.10;0.50;;;15.80;99.90;;;;;;4935692;29;20217;-75
2023/10/29 11:36:32;;;;;;;3.07;0.57;;;15.80;99.90;;;;;;4935389;29;20595;-73
2023/10/29 11:39:29;;;;;;;3.37;0.43;;;15.80;99.90;;;;;;4935277;29;20227;-75
2023/10/29 11:41:56;;;;;;;1.53;0.53;;;15.80;99.90;;;;;;4935204;29;20239;-76
2023/10/29 11:44:24;;;;;;;2.93;0.50;;;15.80;99.90;;;;;;4916395;29;20290;-75
2023/10/29 11:47:04;;;;;;;3.37;0.77;;;15.80;99.90;;;;;;4916377;29;20213;-74
2023/10/29 11:50:17;;;;;;;3.33;0.67;;;15.70;99.90;;;;;;4916226;29;20295;-73
2023/10/29 11:52:44;;;;;;;3.83;0.50;;;15.90;99.90;;;;;;4921891;29;20412;-73
2023/10/29 11:55:14;;;;;;;4.93;0.83;;;16.00;99.90;;;;;;4935550;29;20240;-73
2023/10/29 11:57:49;;;;;;;3.13;0.57;;;16.20;99.90;;;;;;4934996;29;20233;-73
2023/10/29 12:00:17;;;;;;;3.10;0.47;;;16.20;99.90;;;;;;4935294;29;20496;-72
2023/10/29 12:02:45;;;;;;;3.37;0.60;;;16.20;99.90;;;;;;4933687;29;20228;-73
2023/10/29 12:05:15;;;;;;;7.10;0.93;;;16.10;99.90;;;;;;4935613;29;20209;-76
2023/10/29 12:07:42;;;;;;;2.57;0.63;;;16.10;99.90;;;;;;4935271;29;20211;-74
2023/10/29 12:10:10;;;;;;;4.73;0.60;;;16.20;99.90;;;;;;4935093;29;20223;-73
2023/10/29 12:12:37;;;;;;;2.60;0.70;;;16.30;99.90;;;;;;4934955;29;20224;-73
2023/10/29 12:15:07;;;;;;;3.53;0.70;;;16.20;99.90;;;;;;4935417;29;20295;-74
2023/10/29 12:17:34;;;;;;;4.93;0.77;;;16.20;99.90;;;;;;4935363;29;20233;-73
2023/10/29 12:20:01;;;;;;;2.93;0.80;;;16.00;99.90;;;;;;4935498;29;20209;-73
2023/10/29 12:22:30;;;;;;;2.83;0.40;;;15.60;99.90;;;;;;4934405;29;20236;-73
2023/10/29 12:24:59;;;;;;;2.20;0.50;;;15.30;99.90;;;;;;4936056;29;20291;-73
2023/10/29 12:27:26;;;;;;;6.67;0.63;;;15.00;99.90;;;;;;4935444;29;20198;-79
2023/10/29 12:29:53;;;;;;;2.87;0.50;;;15.00;99.90;;;;;;4920010;29;20240;-79
2023/10/29 12:32:23;;;;;;;3.77;0.60;;;14.90;99.90;;;;;;4922847;29;20229;-74
2023/10/29 12:34:51;;;;;;;3.90;0.80;;;14.90;99.90;;;;;;4938960;29;20209;-74
2023/10/29 12:37:25;;;;;;;3.13;1.07;;;14.80;99.90;;;;;;4938360;29;20240;-75
2023/10/29 12:39:56;;;;;;;2.27;0.50;;;14.80;99.90;;;;;;4938913;29;20209;-73
2023/10/29 12:42:23;;;;;;;6.30;1.00;;;14.90;99.90;;;;;;4938117;29;20742;-73
2023/10/29 12:44:54;;;;;;;9.43;0.77;;;14.90;99.90;;;;;;4938771;29;20216;-73
2023/10/29 12:47:22;;;;;;;2.80;0.60;;;14.80;99.90;;;;;;4938374;29;20296;-74
2023/10/29 12:49:59;;;;;;;5.77;0.80;;;14.70;99.90;;;;;;4938558;29;20295;-73
2023/10/29 12:52:26;;;;;;;4.30;0.70;;;14.70;99.90;;;;;;4935885;29;20231;-73
2023/10/29 12:54:54;;;;;;;4.47;1.00;;;14.50;99.90;;;;;;4919586;29;20210;-72
2023/10/29 12:57:22;;;;;;;2.73;0.83;;;14.50;99.90;;;;;;4919409;29;20225;-72
2023/10/29 12:59:49;;;;;;;1.17;0.47;;;14.40;99.90;;;;;;4919414;29;20213;-72
2023/10/29 13:02:24;;;;;;;4.73;0.60;;;14.30;99.90;;;;;;4921542;29;20231;-74
2023/10/29 13:04:51;;;;;;;1.03;0.30;;;14.10;99.90;;;;;;4938368;29;20726;-74
2023/10/29 13:07:19;;;;;;;1.03;0.50;;;14.10;99.90;;;;;;4937993;29;20213;-75
2023/10/29 13:09:48;;;;;;;0.93;0.33;;;14.00;99.90;;;;;;4938489;29;20220;-72
2023/10/29 13:12:16;;;;;;;1.57;0.37;;;13.90;99.90;;;;;;4937863;29;20315;-72
2023/10/29 13:14:45;;;;;;;1.10;0.30;;;13.80;99.90;;;;;;4919151;29;20210;-72
2023/10/29 13:17:14;;;;;;;0.40;0.30;;;13.80;99.90;;;;;;4918785;29;20779;-72
2023/10/29 13:19:40;;;;;;;0.37;0.20;;;13.90;99.90;;;;;;4936793;29;20220;-72
2023/10/29 13:22:07;;;;;;;0.50;0.30;;;13.80;99.90;;;;;;4937528;29;20239;-72
2023/10/29 13:24:34;;;;;;;1.87;0.37;;;13.80;99.90;;;;;;4919944;29;20632;-72
2023/10/29 13:27:01;;;;;;;1.00;0.60;;;13.90;99.90;;;;;;4918927;29;20216;-70
2023/10/29 13:29:29;;;;;;;0.93;0.20;;;13.90;99.90;;;;;;4935287;29;20211;-70
2023/10/29 13:31:56;;;;;;;1.03;0.30;;;13.90;99.90;;;;;;4937690;29;20235;-72
2023/10/29 13:34:23;;;;;;;2.07;0.40;;;14.00;99.90;;;;;;4937297;29;20211;-72
2023/10/29 13:36:50;;;;;;;1.47;0.50;;;14.10;99.90;;;;;;4937016;29;20258;-72
2023/10/29 13:39:17;;;;;;;0.60;0.30;;;14.30;99.90;;;;;;4937393;29;20205;-72
2023/10/29 13:41:45;;;;;;;1.03;0.30;;;14.40;99.90;;;;;;4937393;29;20232;-73
2023/10/29 13:44:15;;;;;;;0.40;0.20;;;14.50;99.90;;;;;;4937108;29;20228;-72
2023/10/29 13:46:43;;;;;;;0.40;0.30;;;14.50;99.90;;;;;;4937357;29;20267;-77
2023/10/29 13:49:10;;;;;;;1.10;0.30;;;14.50;99.90;;;;;;4937384;29;20215;-75
2023/10/29 13:51:38;;;;;;;1.13;0.40;;;14.50;99.90;;;;;;4937539;29;20232;-72
2023/10/29 13:54:05;;;;;;;0.43;0.30;;;14.60;99.90;;;;;;4937069;29;20216;-72
2023/10/29 13:56:32;;;;;;;0.70;0.43;;;14.70;99.90;;;;;;4937225;29;20239;-71
2023/10/29 13:58:59;;;;;;;0.80;0.47;;;14.70;99.90;;;;;;4920650;29;20206;-71
2023/10/29 14:01:26;;;;;;;0.87;0.40;;;14.70;99.90;;;;;;4918136;29;20229;-75
2023/10/29 14:03:55;;;;;;;1.37;0.53;;;14.70;99.90;;;;;;4933328;29;20212;-71
2023/10/29 14:06:22;;;;;;;1.67;0.40;;;14.60;99.90;;;;;;4937168;29;20217;-71
2023/10/29 14:08:49;;;;;;;0.97;0.40;;;14.60;99.90;;;;;;4936729;29;20209;-72
2023/10/29 14:11:16;;;;;;;0.93;0.40;;;14.60;99.90;;;;;;4936933;29;20617;-74
2023/10/29 14:13:44;;;;;;;1.17;0.90;;;14.60;99.90;;;;;;4928232;29;20237;-76
2023/10/29 14:16:11;;;;;;;0.90;0.50;;;14.60;99.90;;;;;;4917828;29;20210;-71
2023/10/29 14:18:38;;;;;;;1.10;0.40;;;14.70;99.90;;;;;;4925203;29;20205;-73
2023/10/29 14:21:06;;;;;;;1.70;0.40;;;14.80;99.90;;;;;;4936592;29;20235;-73
2023/10/29 14:23:34;;;;;;;0.80;0.40;;;14.90;99.90;;;;;;4936316;29;20205;-72
2023/10/29 14:26:01;;;;;;;0.47;0.20;;;14.90;99.90;;;;;;4936787;29;20208;-73
2023/10/29 14:28:29;;;;;;;0.57;0.47;;;14.90;99.90;;;;;;4936292;29;20219;-78
2023/10/29 14:30:56;;;;;;;1.07;0.30;;;15.00;99.90;;;;;;4936495;29;20662;-75
2023/10/29 14:33:22;;;;;;;1.27;0.40;;;15.10;99.90;;;;;;4935297;29;20288;-74
2023/10/29 14:35:55;;;;;;;0.97;0.30;;;15.10;99.90;;;;;;4934038;29;20197;-73
2023/10/29 14:38:23;;;;;;;2.13;0.23;;;15.10;99.90;;;;;;4930940;29;20336;-75
2023/10/29 14:40:51;;;;;;;0.70;0.20;;;15.10;99.90;;;;;;4936062;29;20211;-75
2023/10/29 14:43:21;;;;;;;1.90;0.30;;;15.10;99.90;;;;;;4930447;29;20202;-75
2023/10/29 14:45:48;;;;;;;0.43;0.30;;;15.10;99.90;;;;;;4933249;29;20214;-74
2023/10/29 14:48:16;;;;;;;0.73;0.33;;;15.20;99.90;;;;;;4934236;29;20215;-76
2023/10/29 14:50:43;;;;;;;1.20;0.30;;;15.10;99.90;;;;;;4935702;29;20209;-79
2023/10/29 14:53:09;;;;;;;0.40;0.20;;;15.10;99.90;;;;;;4935905;29;20219;-77
2023/10/29 14:55:38;;;;;;;2.93;0.30;;;15.00;99.90;;;;;;4936131;29;20299;-75
2023/10/29 14:58:05;;;;;;;0.57;0.30;;;15.00;99.90;;;;;;4932815;29;20232;-80
2023/10/29 15:00:32;;;;;;;0.70;0.40;;;15.00;99.90;;;;;;4934926;29;20564;-71
2023/10/29 15:02:59;;;;;;;0.40;0.20;;;15.00;99.90;;;;;;4934710;29;20231;-71
2023/10/29 15:05:26;;;;;;;0.53;0.30;;;15.00;99.90;;;;;;4916190;29;20205;-73
2023/10/29 15:07:55;;;;;;;1.23;0.30;;;14.90;99.90;;;;;;4923761;29;20200;-71
2023/10/29 15:10:21;;;;;;;0.93;0.30;;;14.90;99.90;;;;;;4935446;29;20212;-72
2023/10/29 15:12:50;;;;;;;1.20;0.40;;;14.80;99.90;;;;;;4935529;29;20320;-72
2023/10/29 15:15:17;;;;;;;1.17;0.50;;;14.80;99.90;;;;;;4935333;29;20209;-74
2023/10/29 15:17:45;;;;;;;0.43;0.20;;;14.90;99.90;;;;;;4935134;29;20240;-72
2023/10/29 15:20:12;;;;;;;1.03;0.30;;;14.90;99.90;;;;;;4934854;29;20660;-73
2023/10/29 15:22:39;;;;;;;0.93;0.43;;;14.90;99.90;;;;;;4935461;29;20226;-72
2023/10/29 15:25:06;;;;;;;0.30;0.30;;;14.90;99.90;;;;;;4935171;29;21374;-72
2023/10/29 15:27:35;;;;;;;2.03;0.70;;;14.90;99.90;;;;;;4932304;29;20283;-73
2023/10/29 15:30:04;;;;;;;1.17;0.37;;;14.90;99.90;;;;;;4932284;29;20201;-72
2023/10/29 15:32:31;;;;;;;3.50;0.40;;;14.90;99.90;;;;;;4935215;29;20229;-72
2023/10/29 15:34:59;;;;;;;3.80;0.47;;;14.90;99.90;;;;;;4935548;29;20212;-73
2023/10/29 15:37:26;;;;;;;2.10;0.40;;;15.00;99.90;;;;;;4935142;29;20241;-73
2023/10/29 15:39:56;;;;;;;3.73;0.40;;;14.90;99.90;;;;;;4935320;29;20205;-72
2023/10/29 15:42:23;;;;;;;0.83;0.37;;;14.90;99.90;;;;;;4935111;29;20225;-71
2023/10/29 15:44:50;;;;;;;1.40;0.77;;;14.80;99.90;;;;;;4934740;29;20213;-72
2023/10/29 15:47:22;;;;;;;0.83;0.30;;;14.90;99.90;;;;;;4935181;29;20223;-72
2023/10/29 15:49:50;;;;;;;1.40;0.40;;;14.90;99.90;;;;;;4935004;29;20209;-72
2023/10/29 15:52:17;;;;;;;0.77;0.40;;;14.90;99.90;;;;;;4934771;29;20594;-73
2023/10/29 15:54:44;;;;;;;1.27;0.23;;;14.80;99.90;;;;;;4935575;29;20211;-73
2023/10/29 15:57:11;;;;;;;1.43;0.30;;;14.70;99.90;;;;;;4932380;29;20347;-73
2023/10/29 15:59:38;;;;;;;1.60;0.23;;;14.60;99.90;;;;;;4919141;29;20217;-73
2023/10/29 16:02:05;;;;;;;1.17;0.40;;;14.60;99.90;;;;;;4929501;29;20232;-73
2023/10/29 16:04:33;;;;;;;1.03;0.30;;;14.60;99.90;;;;;;4932183;29;20245;-74
2023/10/29 16:07:01;;;;;;;1.53;0.30;;;14.70;99.90;;;;;;4921698;29;20217;-74
2023/10/29 16:09:28;;;;;;;1.37;0.40;;;14.60;99.90;;;;;;4930557;29;20201;-72
2023/10/29 16:11:55;;;;;;;7.40;0.37;;;14.50;99.90;;;;;;4941281;29;20228;-72
2023/10/29 16:14:22;;;;;;;0.67;0.23;;;14.60;99.90;;;;;;4941208;29;20571;-72
2023/10/29 16:16:50;;;;;;;3.77;0.33;;;14.60;99.90;;;;;;4941417;29;20268;-72
2023/10/29 16:19:16;;;;;;;0.60;0.30;;;14.60;99.90;;;;;;4941221;29;20208;-73
2023/10/29 16:21:45;;;;;;;1.57;0.40;;;14.60;99.90;;;;;;4940377;29;20224;-73
2023/10/29 16:24:13;;;;;;;2.43;0.97;;;14.60;99.90;;;;;;4940420;29;20215;-74
2023/10/29 16:26:40;;;;;;;1.23;0.50;;;14.70;99.90;;;;;;4940196;29;20208;-73
2023/10/29 16:29:07;;;;;;;1.20;0.43;;;14.70;99.90;;;;;;4940394;29;20660;-72
2023/10/29 16:31:34;;;;;;;2.53;0.40;;;14.60;99.90;;;;;;4940209;29;20225;-72
2023/10/29 16:34:01;;;;;;;4.07;0.50;;;14.60;99.90;;;;;;4936596;29;20217;-73
2023/10/29 16:36:27;;;;;;;1.77;0.60;;;14.50;99.90;;;;;;4922087;29;20213;-73
2023/10/29 16:38:56;;;;;;;1.17;0.60;;;14.50;99.90;;;;;;4923493;29;20237;-73
2023/10/29 16:41:23;;;;;;;3.30;0.50;;;14.50;99.90;;;;;;4940284;29;20735;-75
2023/10/29 16:43:52;;;;;;;1.70;0.40;;;14.40;99.90;;;;;;4940872;29;20299;-73
2023/10/29 16:46:19;;;;;;;1.53;0.60;;;14.40;99.90;;;;;;4940562;29;20212;-73
2023/10/29 16:48:47;;;;;;;2.13;0.60;;;14.50;99.90;;;;;;4940697;29;20215;-72
2023/10/29 16:51:13;;;;;;;2.20;0.60;;;14.40;99.90;;;;;;4940570;29;20243;-75
2023/10/29 16:53:40;;;;;;;2.17;0.60;;;14.30;99.90;;;;;;4940319;29;20235;-72
2023/10/29 16:56:11;;;;;;;1.00;0.33;;;14.30;99.90;;;;;;4940537;29;20299;-72
2023/10/29 16:58:39;;;;;;;0.70;0.43;;;14.30;99.90;;;;;;4937774;29;20237;-73
2023/10/29 17:01:06;;;;;;;2.27;0.40;;;14.30;99.90;;;;;;4921798;29;20312;-72
2023/10/29 17:03:32;;;;;;;2.97;0.60;;;14.20;99.90;;;;;;4934358;29;20219;-72
2023/10/29 17:05:59;;;;;;;1.63;0.40;;;14.20;99.90;;;;;;4940476;29;20219;-72
2023/10/29 17:08:26;;;;;;;1.50;0.40;;;14.20;99.90;;;;;;4939861;29;20291;-73
2023/10/29 17:10:58;;;;;;;2.43;0.40;;;14.20;99.90;;;;;;4937248;29;20213;-72
2023/10/29 17:13:26;;;;;;;3.10;0.50;;;14.10;99.90;;;;;;4934860;29;20694;-72
2023/10/29 17:15:58;;;;;;;3.17;0.60;;;14.10;99.90;;;;;;4934661;29;20672;-72
2023/10/29 17:18:25;;;;;;;1.83;0.50;;;14.10;99.90;;;;;;4934591;29;20240;-72
2023/10/29 17:20:53;;;;;;;1.53;0.50;;;14.20;99.90;;;;;;4922081;29;20289;-72
2023/10/29 17:23:21;;;;;;;1.83;0.33;;;14.10;99.90;;;;;;4929771;29;20212;-75
2023/10/29 17:25:48;;;;;;;2.23;0.40;;;14.10;99.90;;;;;;4936839;29;20563;-74
2023/10/29 17:28:15;;;;;;;4.03;0.90;;;14.00;99.90;;;;;;4937318;29;20572;-73
2023/10/29 17:30:44;;;;;;;3.10;1.00;;;14.10;99.90;;;;;;4936282;29;20204;-75
2023/10/29 17:33:11;;;;;;;2.40;0.53;;;14.10;99.90;;;;;;4936389;29;20569;-76
2023/10/29 17:35:37;;;;;;;1.93;0.50;;;14.00;99.90;;;;;;4932836;29;20312;-75
2023/10/29 17:38:04;;;;;;;2.43;0.57;;;14.00;99.90;;;;;;4936857;29;20315;-76
2023/10/29 17:40:31;;;;;;;2.53;0.57;;;14.00;99.90;;;;;;4935650;29;20205;-76
2023/10/29 17:43:00;;;;;;;4.17;0.50;;;13.90;99.90;;;;;;4934475;29;20232;-77
2023/10/29 17:45:27;;;;;;;1.00;0.30;;;13.90;99.90;;;;;;4934057;29;20213;-77
2023/10/29 17:47:57;;;;;;;0.60;0.30;;;13.90;99.90;;;;;;4936588;29;20197;-76
2023/10/29 17:50:24;;;;;;;1.07;0.43;;;13.90;99.90;;;;;;4927206;29;20297;-78
2023/10/29 17:52:51;;;;;;;2.00;0.80;;;13.80;99.90;;;;;;4929921;29;20225;-77
2023/10/29 17:55:18;;;;;;;1.20;0.53;;;13.80;99.90;;;;;;4928259;29;20244;-81
2023/10/29 17:57:45;;;;;;;1.17;0.60;;;13.80;99.90;;;;;;4925392;29;20695;-77
2023/10/29 18:00:14;;;;;;;1.73;0.50;;;13.80;99.90;;;;;;4928837;29;20210;-76
2023/10/29 18:02:41;;;;;;;3.13;0.67;;;13.70;99.90;;;;;;4923773;29;20229;-74
2023/10/29 18:05:12;;;;;;;1.27;0.80;;;13.70;99.90;;;;;;4936734;29;20208;-76
2023/10/29 18:07:39;;;;;;;1.60;0.60;;;13.60;99.90;;;;;;4936990;29;20212;-76
2023/10/29 18:10:07;;;;;;;1.73;0.57;;;13.60;99.90;;;;;;4935171;29;20209;-77
2023/10/29 18:12:33;;;;;;;1.40;0.50;;;13.60;99.90;;;;;;4936224;29;20225;-75
2023/10/29 18:15:00;;;;;;;1.27;0.37;;;13.60;99.90;;;;;;4935405;29;20295;-76
2023/10/29 18:17:27;;;;;;;1.20;0.57;;;13.60;99.90;;;;;;4935422;29;20205;-71
2023/10/29 18:19:54;;;;;;;0.90;0.40;;;13.60;99.90;;;;;;4935721;29;20659;-73
2023/10/29 18:22:22;;;;;;;2.53;0.47;;;13.60;99.90;;;;;;4926948;29;20235;-75
2023/10/29 18:24:49;;;;;;;1.17;0.67;;;13.50;99.90;;;;;;4924893;29;20218;-74
2023/10/29 18:27:16;;;;;;;3.00;0.80;;;13.50;99.90;;;;;;4936222;29;20228;-75
2023/10/29 18:29:43;;;;;;;1.93;0.73;;;13.50;99.90;;;;;;4936482;29;20209;-75
2023/10/29 18:32:10;;;;;;;3.63;0.90;;;13.50;99.90;;;;;;4935886;29;20240;-74
2023/10/29 18:34:37;;;;;;;2.33;0.87;;;13.50;99.90;;;;;;4932302;29;20609;-74
2023/10/29 18:37:04;;;;;;;2.90;1.00;;;13.40;99.90;;;;;;4928638;29;20303;-75
2023/10/29 18:39:32;;;;;;;2.23;1.10;;;13.40;99.90;;;;;;4933205;29;20711;-74
2023/10/29 18:42:00;;;;;;;1.80;0.57;;;13.30;99.90;;;;;;4923528;29;20224;-74
2023/10/29 18:44:30;;;;;;;1.37;0.40;;;13.40;99.90;;;;;;4935725;29;20680;-74
2023/10/29 18:46:57;;;;;;;3.23;0.70;;;13.30;99.90;;;;;;4933116;29;20205;-75
2023/10/29 18:49:27;;;;;;;1.27;0.60;;;13.30;99.90;;;;;;4930280;29;20205;-74
2023/10/29 18:51:55;;;;;;;2.93;1.13;;;13.20;99.90;;;;;;4928925;29;20236;-74
2023/10/29 18:54:22;;;;;;;3.70;1.33;;;13.20;99.90;;;;;;4930137;29;20613;-75
2023/10/29 18:56:51;;;;;;;2.47;0.80;;;13.10;99.90;;;;;;4933554;29;20207;-74
2023/10/29 18:59:18;;;;;;;3.63;1.83;;;13.10;99.90;;;;;;4934763;29;20248;-74
2023/10/29 19:01:45;;;;;;;8.20;2.17;;;13.10;99.90;;;;;;4935183;29;20259;-75
2023/10/29 19:04:12;;;;;;;7.70;3.13;;;13.00;99.90;;;;;;4935322;29;20675;-74
2023/10/29 19:06:39;;;;;;;3.33;1.50;;;13.00;99.90;;;;;;4934803;29;20404;-75
2023/10/29 19:09:06;;;;;;;4.37;1.77;;;13.00;99.90;;;;;;4935368;29;20583;-75
2023/10/29 19:11:33;;;;;;;3.63;0.93;;;12.90;99.90;;;;;;4935194;29;20239;-74
2023/10/29 19:14:01;;;;;;;4.70;0.90;;;12.80;99.90;;;;;;4936034;29;20217;-73
2023/10/29 19:16:28;;;;;;;6.07;1.70;;;12.70;99.90;;;;;;4935480;29;20213;-73
2023/10/29 19:18:55;;;;;;;8.50;1.93;;;12.70;99.90;;;;;;4934833;29;20232;-74
2023/10/29 19:21:22;;;;;;;13.23;4.43;;;12.80;99.90;;;;;;4934717;29;20229;-76
2023/10/29 19:23:49;;;;;;;3.50;0.70;;;12.80;99.90;;;;;;4922442;29;20206;-76
2023/10/29 19:26:16;;;;;;;5.70;0.93;;;12.80;99.90;;;;;;4932833;29;20311;-73
2023/10/29 19:28:43;;;;;;;3.53;1.00;;;12.70;99.90;;;;;;4934892;29;20219;-74
2023/10/29 19:31:11;;;;;;;4.10;1.07;;;12.70;99.90;;;;;;4933672;29;20718;-74
2023/10/29 19:33:39;;;;;;;4.67;1.27;;;12.70;99.90;;;;;;4925918;29;20300;-73
2023/10/29 19:36:09;;;;;;;5.87;1.07;;;12.70;99.90;;;;;;4932250;29;20209;-73
2023/10/29 19:38:36;;;;;;;5.30;2.23;;;12.70;99.90;;;;;;4932142;29;20791;-73
2023/10/29 19:41:04;;;;;;;4.13;1.73;;;12.70;99.90;;;;;;4934274;29;20319;-74
2023/10/29 19:43:30;;;;;;;6.23;2.10;;;12.60;99.90;;;;;;4934629;29;20219;-73
2023/10/29 19:45:58;;;;;;;5.80;1.67;;;12.60;99.90;;;;;;4934566;29;20220;-74
2023/10/29 19:48:27;;;;;;;5.03;1.00;;;12.60;99.90;;;;;;4934643;29;20616;-73
2023/10/29 19:50:58;;;;;;;6.20;2.20;;;12.60;99.90;;;;;;4934497;29;20209;-76
2023/10/29 19:53:26;;;;;;;4.20;1.10;;;12.60;99.90;;;;;;4932209;29;20754;-74
2023/10/29 19:55:52;;;;;;;7.40;2.20;;;12.60;99.90;;;;;;4933939;29;20216;-74
2023/10/29 19:58:19;;;;;;;7.50;2.03;;;12.60;99.90;;;;;;4933970;29;21196;-73
2023/10/29 20:00:47;;;;;;;7.13;1.93;;;12.60;99.90;;;;;;4934070;29;20209;-74
2023/10/29 20:03:14;;;;;;;6.23;2.00;;;12.50;99.90;;;;;;4931993;29;20663;-74
2023/10/29 20:05:42;;;;;;;3.90;1.40;;;12.50;99.90;;;;;;4935142;29;20204;-72
2023/10/29 20:08:09;;;;;;;4.20;1.07;;;12.40;99.90;;;;;;4934606;29;20215;-74
2023/10/29 20:10:36;;;;;;;2.13;0.73;;;12.50;99.90;;;;;;4934999;29;20215;-74
2023/10/29 20:13:03;;;;;;;5.90;1.33;;;12.50;99.90;;;;;;4934928;29;20206;-73
2023/10/29 20:15:30;;;;;;;5.33;1.53;;;12.40;99.90;;;;;;4935015;29;20304;-74
2023/10/29 20:17:57;;;;;;;4.20;1.37;;;12.40;99.90;;;;;;4934788;29;20537;-73
2023/10/29 20:20:24;;;;;;;2.33;1.10;;;12.50;99.90;;;;;;4935415;29;20208;-74
2023/10/29 20:22:52;;;;;;;1.57;0.70;;;12.50;99.90;;;;;;4935232;29;20228;-73
2023/10/29 20:25:19;;;;;;;3.53;0.97;;;12.50;99.90;;;;;;4935113;29;20209;-74
2023/10/29 20:27:47;;;;;;;3.33;0.60;;;12.50;99.90;;;;;;4934879;29;20200;-75
2023/10/29 20:30:14;;;;;;;2.33;0.70;;;12.50;99.90;;;;;;4934867;29;20219;-73
2023/10/29 20:32:41;;;;;;;2.47;0.80;;;12.50;99.90;;;;;;4934793;29;20229;-73
2023/10/29 20:35:08;;;;;;;2.37;0.90;;;12.50;99.90;;;;;;4934935;29;20304;-75
2023/10/29 20:37:35;;;;;;;5.07;1.00;;;12.50;99.90;;;;;;4934659;29;20571;-75
2023/10/29 20:40:04;;;;;;;6.40;1.90;;;12.50;99.90;;;;;;4934676;29;20240;-73
2023/10/29 20:42:31;;;;;;;3.20;1.03;;;12.50;99.90;;;;;;4947016;23;20228;-72
2023/10/29 20:44:58;;;;;;;2.17;0.97;;;12.50;99.90;;;;;;4934582;29;20244;-73
2023/10/29 20:47:25;;;;;;;4.67;1.60;;;12.40;99.90;;;;;;4937252;29;20216;-72
2023/10/29 20:49:52;;;;;;;2.67;0.67;;;12.40;99.90;;;;;;4938187;29;20212;-74
2023/10/29 20:52:19;;;;;;;2.13;0.90;;;12.40;99.90;;;;;;4933276;29;20225;-72
2023/10/29 20:54:46;;;;;;;2.30;1.00;;;12.40;99.90;;;;;;4919356;29;20206;-73
2023/10/29 20:57:14;;;;;;;4.90;1.87;;;12.30;99.90;;;;;;4919086;29;20578;-72
2023/10/29 20:59:41;;;;;;;1.63;1.17;;;12.30;99.90;;;;;;4919190;29;20237;-73
2023/10/29 21:02:08;;;;;;;5.67;1.93;;;12.30;99.90;;;;;;4918910;29;20316;-73
2023/10/29 21:04:34;;;;;;;7.50;2.70;;;12.30;99.90;;;;;;4919272;29;20209;-73
2023/10/29 21:07:01;;;;;;;3.90;1.60;;;12.30;99.90;;;;;;4919190;29;20562;-73
2023/10/29 21:09:28;;;;;;;4.57;1.37;;;12.20;99.90;;;;;;4918035;29;20213;-73
2023/10/29 21:11:55;;;;;;;9.97;2.33;;;12.20;99.90;;;;;;4918029;29;20762;-73
2023/10/29 21:14:23;;;;;;;8.17;2.20;;;12.20;99.90;;;;;;4919254;29;20206;-75
2023/10/29 21:16:50;;;;;;;5.53;1.10;;;12.20;99.90;;;;;;4918809;29;20214;-74
2023/10/29 21:19:17;;;;;;;4.63;0.87;;;12.20;99.90;;;;;;4919014;29;20243;-74
2023/10/29 21:21:43;;;;;;;3.40;1.37;;;12.20;99.90;;;;;;4918336;29;20221;-75
2023/10/29 21:24:10;;;;;;;3.90;0.90;;;12.20;99.90;;;;;;4918823;29;20216;-74
2023/10/29 21:26:37;;;;;;;2.93;1.20;;;12.20;99.90;;;;;;4918606;29;20206;-75
2023/10/29 21:29:04;;;;;;;6.13;1.27;;;12.20;99.90;;;;;;4918352;29;20209;-75
2023/10/29 21:31:32;;;;;;;6.77;0.67;;;12.20;99.90;;;;;;4918158;29;20225;-75
2023/10/29 21:33:59;;;;;;;2.67;0.50;;;12.10;99.90;;;;;;4918574;29;20277;-74